Bramham, United Kingdom
Current Conditions -  °F | °C
As of 7:50 AM on Thursday 23 Oct 2014 (Local Time) from EGNM Reporting Station
Scattered Clouds Scattered Clouds  
Wind Chill: 50°   Ceiling: Unl
Heat Index: 50°   Visibility: 6mi
Dew Point: 46°   Wind: 7mph
Humidity: 87%   Direction: 220°SW
Pressure: 29.97"   Gusts: NA
Location:  53.88°N, 1.35°W
Report Text: EGNM 230650Z 22006KT 190V270 9999 SCT026 10/08 Q1015
Loading
Personal Weather Stations






























Interactive Weather Map
Tropical Storm Tracking
New forecast layout! Learn more

10-Day Weather Forecast

Advertisements
Track Severe Weather on mobile